Terminal Aerodrome Forecast
Issued by NWS

Home | Current Version | Previous Version | Text Only | Print | Product List | Glossary On
Versions: 1 2 3 4 5 6 7 8 9 10 11 12
000
FTUS45 KABQ 252335
TAFROW
TAF
KROW 252335Z 2600/2624 17013G23KT P6SM SCT080 SCT150
     FM260400 17009KT P6SM BKN150
     FM261200 17008KT P6SM FEW120=

USA.gov is the U.S. government's official web portal to all federal, state and local government web resources and services.